sensor_id;sensor_type;location;lat;lon;timestamp;P1;durP1;ratioP1;P2;durP2;ratioP2
19780;SDS011;10050;55.492;13.506;2023-07-29T00:00:33;4.10;;;2.67;;
19780;SDS011;10050;55.492;13.506;2023-07-29T00:02:59;3.10;;;2.90;;
19780;SDS011;10050;55.492;13.506;2023-07-29T00:05:24;4.93;;;2.93;;
19780;SDS011;10050;55.492;13.506;2023-07-29T00:07:50;3.27;;;2.97;;
19780;SDS011;10050;55.492;13.506;2023-07-29T00:10:15;4.87;;;3.33;;
19780;SDS011;10050;55.492;13.506;2023-07-29T00:12:41;3.77;;;3.23;;
19780;SDS011;10050;55.492;13.506;2023-07-29T00:15:07;3.50;;;3.10;;
19780;SDS011;10050;55.492;13.506;2023-07-29T00:17:33;2.80;;;2.60;;
19780;SDS011;10050;55.492;13.506;2023-07-29T00:19:58;4.40;;;3.37;;
19780;SDS011;10050;55.492;13.506;2023-07-29T00:22:24;4.90;;;3.33;;
19780;SDS011;10050;55.492;13.506;2023-07-29T00:24:53;2.80;;;2.53;;
19780;SDS011;10050;55.492;13.506;2023-07-29T00:27:20;3.30;;;3.00;;
19780;SDS011;10050;55.492;13.506;2023-07-29T00:29:46;3.90;;;3.00;;
19780;SDS011;10050;55.492;13.506;2023-07-29T00:32:12;3.53;;;3.20;;
19780;SDS011;10050;55.492;13.506;2023-07-29T00:34:37;5.23;;;3.03;;
19780;SDS011;10050;55.492;13.506;2023-07-29T00:37:03;3.47;;;3.17;;
19780;SDS011;10050;55.492;13.506;2023-07-29T00:39:30;3.10;;;2.60;;
19780;SDS011;10050;55.492;13.506;2023-07-29T00:41:59;3.67;;;2.73;;
19780;SDS011;10050;55.492;13.506;2023-07-29T00:44:25;4.50;;;3.27;;
19780;SDS011;10050;55.492;13.506;2023-07-29T00:46:53;3.43;;;2.90;;
19780;SDS011;10050;55.492;13.506;2023-07-29T00:49:20;3.97;;;2.70;;
19780;SDS011;10050;55.492;13.506;2023-07-29T00:51:47;4.00;;;3.60;;
19780;SDS011;10050;55.492;13.506;2023-07-29T00:54:13;3.80;;;3.33;;
19780;SDS011;10050;55.492;13.506;2023-07-29T00:56:39;3.63;;;3.10;;
19780;SDS011;10050;55.492;13.506;2023-07-29T00:59:05;4.63;;;3.10;;
19780;SDS011;10050;55.492;13.506;2023-07-29T01:01:31;4.73;;;2.87;;
19780;SDS011;10050;55.492;13.506;2023-07-29T01:03:57;3.07;;;2.70;;
19780;SDS011;10050;55.492;13.506;2023-07-29T01:09:02;2.80;;;2.60;;
19780;SDS011;10050;55.492;13.506;2023-07-29T01:11:34;3.73;;;2.93;;
19780;SDS011;10050;55.492;13.506;2023-07-29T01:16:58;3.70;;;2.53;;
19780;SDS011;10050;55.492;13.506;2023-07-29T01:22:31;3.87;;;3.13;;
19780;SDS011;10050;55.492;13.506;2023-07-29T01:24:58;4.87;;;3.20;;
19780;SDS011;10050;55.492;13.506;2023-07-29T01:27:24;3.23;;;2.90;;
19780;SDS011;10050;55.492;13.506;2023-07-29T01:29:51;5.17;;;3.37;;
19780;SDS011;10050;55.492;13.506;2023-07-29T01:32:19;4.10;;;2.97;;
19780;SDS011;10050;55.492;13.506;2023-07-29T01:34:49;7.87;;;3.50;;
19780;SDS011;10050;55.492;13.506;2023-07-29T01:37:19;6.20;;;3.57;;
19780;SDS011;10050;55.492;13.506;2023-07-29T01:39:49;5.17;;;3.77;;
19780;SDS011;10050;55.492;13.506;2023-07-29T01:42:15;4.47;;;3.73;;
19780;SDS011;10050;55.492;13.506;2023-07-29T01:44:41;5.90;;;3.73;;
19780;SDS011;10050;55.492;13.506;2023-07-29T01:47:07;8.10;;;3.90;;
19780;SDS011;10050;55.492;13.506;2023-07-29T01:49:33;4.90;;;3.80;;
19780;SDS011;10050;55.492;13.506;2023-07-29T01:51:59;6.03;;;3.97;;
19780;SDS011;10050;55.492;13.506;2023-07-29T01:54:25;4.37;;;3.53;;
19780;SDS011;10050;55.492;13.506;2023-07-29T01:56:50;3.70;;;3.40;;
19780;SDS011;10050;55.492;13.506;2023-07-29T01:59:16;4.07;;;3.37;;
19780;SDS011;10050;55.492;13.506;2023-07-29T02:01:42;4.20;;;3.47;;
19780;SDS011;10050;55.492;13.506;2023-07-29T02:04:07;4.33;;;3.27;;
19780;SDS011;10050;55.492;13.506;2023-07-29T02:06:33;4.60;;;3.50;;
19780;SDS011;10050;55.492;13.506;2023-07-29T02:08:59;4.17;;;3.47;;
19780;SDS011;10050;55.492;13.506;2023-07-29T02:11:25;3.80;;;3.37;;
19780;SDS011;10050;55.492;13.506;2023-07-29T02:13:53;3.77;;;2.97;;
19780;SDS011;10050;55.492;13.506;2023-07-29T02:16:20;4.00;;;2.90;;
19780;SDS011;10050;55.492;13.506;2023-07-29T02:18:46;9.67;;;3.20;;
19780;SDS011;10050;55.492;13.506;2023-07-29T02:21:11;4.70;;;3.17;;
19780;SDS011;10050;55.492;13.506;2023-07-29T02:23:37;3.60;;;3.03;;
19780;SDS011;10050;55.492;13.506;2023-07-29T02:26:02;4.23;;;3.30;;
19780;SDS011;10050;55.492;13.506;2023-07-29T02:28:28;5.27;;;3.00;;
19780;SDS011;10050;55.492;13.506;2023-07-29T02:33:55;3.77;;;3.00;;
19780;SDS011;10050;55.492;13.506;2023-07-29T02:36:21;3.30;;;3.00;;
19780;SDS011;10050;55.492;13.506;2023-07-29T02:38:47;6.67;;;3.27;;
19780;SDS011;10050;55.492;13.506;2023-07-29T02:41:12;4.80;;;3.00;;
19780;SDS011;10050;55.492;13.506;2023-07-29T02:43:38;5.17;;;3.70;;
19780;SDS011;10050;55.492;13.506;2023-07-29T02:46:05;6.47;;;3.77;;
19780;SDS011;10050;55.492;13.506;2023-07-29T02:48:31;14.30;;;3.90;;
19780;SDS011;10050;55.492;13.506;2023-07-29T02:50:57;5.07;;;3.33;;
19780;SDS011;10050;55.492;13.506;2023-07-29T02:53:22;5.43;;;3.57;;
19780;SDS011;10050;55.492;13.506;2023-07-29T02:55:48;9.03;;;3.70;;
19780;SDS011;10050;55.492;13.506;2023-07-29T02:58:14;8.60;;;4.10;;
19780;SDS011;10050;55.492;13.506;2023-07-29T03:00:40;8.07;;;4.27;;
19780;SDS011;10050;55.492;13.506;2023-07-29T03:03:07;8.67;;;4.33;;
19780;SDS011;10050;55.492;13.506;2023-07-29T03:05:33;5.53;;;3.80;;
19780;SDS011;10050;55.492;13.506;2023-07-29T03:07:59;6.73;;;3.77;;
19780;SDS011;10050;55.492;13.506;2023-07-29T03:10:25;7.10;;;3.53;;
19780;SDS011;10050;55.492;13.506;2023-07-29T03:12:50;4.77;;;2.97;;
19780;SDS011;10050;55.492;13.506;2023-07-29T03:15:18;7.80;;;3.50;;
19780;SDS011;10050;55.492;13.506;2023-07-29T03:17:45;6.17;;;2.97;;
19780;SDS011;10050;55.492;13.506;2023-07-29T03:20:11;5.43;;;3.53;;
19780;SDS011;10050;55.492;13.506;2023-07-29T03:22:37;6.27;;;3.70;;
19780;SDS011;10050;55.492;13.506;2023-07-29T03:25:02;3.93;;;3.00;;
19780;SDS011;10050;55.492;13.506;2023-07-29T03:27:28;6.53;;;3.60;;
19780;SDS011;10050;55.492;13.506;2023-07-29T03:29:54;6.13;;;3.63;;
19780;SDS011;10050;55.492;13.506;2023-07-29T03:32:19;3.80;;;3.40;;
19780;SDS011;10050;55.492;13.506;2023-07-29T03:34:45;4.20;;;3.10;;
19780;SDS011;10050;55.492;13.506;2023-07-29T03:37:10;4.87;;;3.20;;
19780;SDS011;10050;55.492;13.506;2023-07-29T03:39:36;4.67;;;3.30;;
19780;SDS011;10050;55.492;13.506;2023-07-29T03:42:02;6.53;;;3.10;;
19780;SDS011;10050;55.492;13.506;2023-07-29T03:44:28;4.27;;;3.40;;
19780;SDS011;10050;55.492;13.506;2023-07-29T03:46:53;5.60;;;3.27;;
19780;SDS011;10050;55.492;13.506;2023-07-29T03:49:19;4.83;;;2.80;;
19780;SDS011;10050;55.492;13.506;2023-07-29T03:51:44;3.97;;;3.17;;
19780;SDS011;10050;55.492;13.506;2023-07-29T03:54:10;4.23;;;2.50;;
19780;SDS011;10050;55.492;13.506;2023-07-29T03:56:36;3.70;;;3.30;;
19780;SDS011;10050;55.492;13.506;2023-07-29T03:59:03;2.83;;;2.63;;
19780;SDS011;10050;55.492;13.506;2023-07-29T04:01:30;3.03;;;2.83;;
19780;SDS011;10050;55.492;13.506;2023-07-29T04:03:56;3.50;;;2.67;;
19780;SDS011;10050;55.492;13.506;2023-07-29T04:06:21;3.43;;;3.07;;
19780;SDS011;10050;55.492;13.506;2023-07-29T04:08:47;3.33;;;2.90;;
19780;SDS011;10050;55.492;13.506;2023-07-29T04:11:14;3.50;;;2.80;;
19780;SDS011;10050;55.492;13.506;2023-07-29T04:13:39;3.23;;;2.93;;
19780;SDS011;10050;55.492;13.506;2023-07-29T04:16:05;3.47;;;2.87;;
19780;SDS011;10050;55.492;13.506;2023-07-29T04:18:31;3.23;;;2.93;;
19780;SDS011;10050;55.492;13.506;2023-07-29T04:20:57;3.33;;;3.03;;
19780;SDS011;10050;55.492;13.506;2023-07-29T04:23:22;4.73;;;3.20;;
19780;SDS011;10050;55.492;13.506;2023-07-29T04:25:48;4.17;;;3.63;;
19780;SDS011;10050;55.492;13.506;2023-07-29T04:28:16;3.87;;;3.47;;
19780;SDS011;10050;55.492;13.506;2023-07-29T04:30:42;2.70;;;2.47;;
19780;SDS011;10050;55.492;13.506;2023-07-29T04:33:08;3.00;;;2.80;;
19780;SDS011;10050;55.492;13.506;2023-07-29T04:35:33;3.53;;;2.90;;
19780;SDS011;10050;55.492;13.506;2023-07-29T04:37:59;6.30;;;3.23;;
19780;SDS011;10050;55.492;13.506;2023-07-29T04:40:24;4.03;;;3.10;;
19780;SDS011;10050;55.492;13.506;2023-07-29T04:42:50;3.60;;;3.30;;
19780;SDS011;10050;55.492;13.506;2023-07-29T04:45:16;3.97;;;3.13;;
19780;SDS011;10050;55.492;13.506;2023-07-29T04:47:42;3.83;;;3.23;;
19780;SDS011;10050;55.492;13.506;2023-07-29T04:50:07;3.80;;;3.37;;
19780;SDS011;10050;55.492;13.506;2023-07-29T04:52:33;4.00;;;3.33;;
19780;SDS011;10050;55.492;13.506;2023-07-29T04:54:59;4.57;;;3.53;;
19780;SDS011;10050;55.492;13.506;2023-07-29T04:57:25;6.50;;;4.27;;
19780;SDS011;10050;55.492;13.506;2023-07-29T04:59:50;7.10;;;4.43;;
19780;SDS011;10050;55.492;13.506;2023-07-29T05:02:16;6.53;;;4.30;;
19780;SDS011;10050;55.492;13.506;2023-07-29T05:04:42;6.30;;;4.10;;
19780;SDS011;10050;55.492;13.506;2023-07-29T05:07:07;5.80;;;4.17;;
19780;SDS011;10050;55.492;13.506;2023-07-29T05:09:33;8.80;;;5.13;;
19780;SDS011;10050;55.492;13.506;2023-07-29T05:11:59;4.77;;;4.37;;
19780;SDS011;10050;55.492;13.506;2023-07-29T05:14:24;6.00;;;4.50;;
19780;SDS011;10050;55.492;13.506;2023-07-29T05:16:50;6.40;;;5.03;;
19780;SDS011;10050;55.492;13.506;2023-07-29T05:19:15;5.57;;;4.93;;
19780;SDS011;10050;55.492;13.506;2023-07-29T05:21:41;5.33;;;4.87;;
19780;SDS011;10050;55.492;13.506;2023-07-29T05:24:07;5.33;;;4.90;;
19780;SDS011;10050;55.492;13.506;2023-07-29T05:26:32;5.70;;;5.10;;
19780;SDS011;10050;55.492;13.506;2023-07-29T05:28:58;5.93;;;5.27;;
19780;SDS011;10050;55.492;13.506;2023-07-29T05:31:24;5.23;;;4.40;;
19780;SDS011;10050;55.492;13.506;2023-07-29T05:33:49;10.10;;;5.87;;
19780;SDS011;10050;55.492;13.506;2023-07-29T05:36:15;9.27;;;5.90;;
19780;SDS011;10050;55.492;13.506;2023-07-29T05:38:41;7.73;;;5.93;;
19780;SDS011;10050;55.492;13.506;2023-07-29T05:41:06;8.63;;;6.60;;
19780;SDS011;10050;55.492;13.506;2023-07-29T05:43:32;7.80;;;6.87;;
19780;SDS011;10050;55.492;13.506;2023-07-29T05:45:58;11.13;;;7.20;;
19780;SDS011;10050;55.492;13.506;2023-07-29T05:48:23;8.70;;;6.63;;
19780;SDS011;10050;55.492;13.506;2023-07-29T05:50:49;7.57;;;6.53;;
19780;SDS011;10050;55.492;13.506;2023-07-29T05:53:15;8.03;;;7.23;;
19780;SDS011;10050;55.492;13.506;2023-07-29T05:55:41;8.37;;;6.63;;
19780;SDS011;10050;55.492;13.506;2023-07-29T05:58:06;9.07;;;7.27;;
19780;SDS011;10050;55.492;13.506;2023-07-29T06:00:32;7.80;;;7.00;;
19780;SDS011;10050;55.492;13.506;2023-07-29T06:02:57;8.37;;;7.53;;
19780;SDS011;10050;55.492;13.506;2023-07-29T06:05:23;10.50;;;8.03;;
19780;SDS011;10050;55.492;13.506;2023-07-29T06:07:49;9.73;;;8.60;;
19780;SDS011;10050;55.492;13.506;2023-07-29T06:10:15;9.73;;;8.80;;
19780;SDS011;10050;55.492;13.506;2023-07-29T06:12:43;11.00;;;8.90;;
19780;SDS011;10050;55.492;13.506;2023-07-29T06:15:10;10.60;;;8.50;;
19780;SDS011;10050;55.492;13.506;2023-07-29T06:17:36;8.77;;;7.87;;
19780;SDS011;10050;55.492;13.506;2023-07-29T06:20:03;8.73;;;7.83;;
19780;SDS011;10050;55.492;13.506;2023-07-29T06:22:29;8.23;;;7.43;;
19780;SDS011;10050;55.492;13.506;2023-07-29T06:24:54;8.30;;;7.43;;
19780;SDS011;10050;55.492;13.506;2023-07-29T06:27:20;7.53;;;6.83;;
19780;SDS011;10050;55.492;13.506;2023-07-29T06:29:45;8.33;;;7.07;;
19780;SDS011;10050;55.492;13.506;2023-07-29T06:32:11;7.10;;;6.33;;
19780;SDS011;10050;55.492;13.506;2023-07-29T06:34:37;8.60;;;6.03;;
19780;SDS011;10050;55.492;13.506;2023-07-29T06:37:02;6.93;;;5.93;;
19780;SDS011;10050;55.492;13.506;2023-07-29T06:39:28;5.63;;;5.13;;
19780;SDS011;10050;55.492;13.506;2023-07-29T06:41:54;6.00;;;5.50;;
19780;SDS011;10050;55.492;13.506;2023-07-29T06:44:19;6.00;;;5.23;;
19780;SDS011;10050;55.492;13.506;2023-07-29T06:46:45;5.60;;;4.27;;
19780;SDS011;10050;55.492;13.506;2023-07-29T06:49:11;4.10;;;3.80;;
19780;SDS011;10050;55.492;13.506;2023-07-29T06:51:36;4.10;;;3.80;;
19780;SDS011;10050;55.492;13.506;2023-07-29T06:54:02;4.33;;;3.53;;
19780;SDS011;10050;55.492;13.506;2023-07-29T06:56:28;3.60;;;3.30;;
19780;SDS011;10050;55.492;13.506;2023-07-29T06:58:54;4.17;;;3.77;;
19780;SDS011;10050;55.492;13.506;2023-07-29T07:01:19;5.07;;;3.60;;
19780;SDS011;10050;55.492;13.506;2023-07-29T07:03:45;3.23;;;2.93;;
19780;SDS011;10050;55.492;13.506;2023-07-29T07:06:11;3.70;;;3.40;;
19780;SDS011;10050;55.492;13.506;2023-07-29T07:08:36;5.97;;;3.67;;
19780;SDS011;10050;55.492;13.506;2023-07-29T07:11:02;4.07;;;2.67;;
19780;SDS011;10050;55.492;13.506;2023-07-29T07:13:27;3.47;;;3.20;;
19780;SDS011;10050;55.492;13.506;2023-07-29T07:15:56;5.87;;;3.17;;
19780;SDS011;10050;55.492;13.506;2023-07-29T07:18:22;3.63;;;3.33;;
19780;SDS011;10050;55.492;13.506;2023-07-29T07:20:48;2.63;;;2.43;;
19780;SDS011;10050;55.492;13.506;2023-07-29T07:23:15;5.20;;;2.77;;
19780;SDS011;10050;55.492;13.506;2023-07-29T07:25:41;2.80;;;2.60;;
19780;SDS011;10050;55.492;13.506;2023-07-29T07:28:07;2.90;;;2.43;;
19780;SDS011;10050;55.492;13.506;2023-07-29T07:30:34;2.83;;;2.10;;
19780;SDS011;10050;55.492;13.506;2023-07-29T07:33:00;2.50;;;2.30;;
19780;SDS011;10050;55.492;13.506;2023-07-29T07:35:26;4.93;;;2.00;;
19780;SDS011;10050;55.492;13.506;2023-07-29T07:37:52;2.20;;;2.10;;
19780;SDS011;10050;55.492;13.506;2023-07-29T07:40:17;2.90;;;2.50;;
19780;SDS011;10050;55.492;13.506;2023-07-29T07:42:43;2.13;;;2.03;;
19780;SDS011;10050;55.492;13.506;2023-07-29T07:45:08;2.10;;;2.00;;
19780;SDS011;10050;55.492;13.506;2023-07-29T07:47:34;3.20;;;2.20;;
19780;SDS011;10050;55.492;13.506;2023-07-29T07:50:00;2.37;;;2.20;;
19780;SDS011;10050;55.492;13.506;2023-07-29T07:52:25;1.93;;;1.83;;
19780;SDS011;10050;55.492;13.506;2023-07-29T07:54:52;2.17;;;2.07;;
19780;SDS011;10050;55.492;13.506;2023-07-29T07:57:19;2.47;;;2.23;;
19780;SDS011;10050;55.492;13.506;2023-07-29T07:59:49;2.83;;;2.20;;
19780;SDS011;10050;55.492;13.506;2023-07-29T08:02:15;2.20;;;2.10;;
19780;SDS011;10050;55.492;13.506;2023-07-29T08:04:41;2.50;;;2.30;;
19780;SDS011;10050;55.492;13.506;2023-07-29T08:07:07;3.53;;;2.27;;
19780;SDS011;10050;55.492;13.506;2023-07-29T08:09:32;2.47;;;2.27;;
19780;SDS011;10050;55.492;13.506;2023-07-29T08:11:58;2.33;;;2.13;;
19780;SDS011;10050;55.492;13.506;2023-07-29T08:14:24;1.97;;;1.87;;
19780;SDS011;10050;55.492;13.506;2023-07-29T08:16:49;2.33;;;2.00;;
19780;SDS011;10050;55.492;13.506;2023-07-29T08:19:15;2.50;;;2.40;;
19780;SDS011;10050;55.492;13.506;2023-07-29T08:21:40;2.43;;;2.23;;
19780;SDS011;10050;55.492;13.506;2023-07-29T08:24:06;2.27;;;2.17;;
19780;SDS011;10050;55.492;13.506;2023-07-29T08:26:32;2.07;;;1.90;;
19780;SDS011;10050;55.492;13.506;2023-07-29T08:28:58;2.40;;;2.20;;
19780;SDS011;10050;55.492;13.506;2023-07-29T08:31:24;2.83;;;2.63;;
19780;SDS011;10050;55.492;13.506;2023-07-29T08:33:49;2.20;;;2.10;;
19780;SDS011;10050;55.492;13.506;2023-07-29T08:36:15;2.93;;;2.10;;
19780;SDS011;10050;55.492;13.506;2023-07-29T08:38:41;4.60;;;2.30;;
19780;SDS011;10050;55.492;13.506;2023-07-29T08:41:19;2.60;;;2.40;;
19780;SDS011;10050;55.492;13.506;2023-07-29T08:46:38;2.57;;;2.23;;
19780;SDS011;10050;55.492;13.506;2023-07-29T08:49:04;2.20;;;2.10;;
19780;SDS011;10050;55.492;13.506;2023-07-29T08:51:31;2.70;;;2.50;;
19780;SDS011;10050;55.492;13.506;2023-07-29T08:53:58;2.23;;;1.77;;
19780;SDS011;10050;55.492;13.506;2023-07-29T08:56:24;2.20;;;2.10;;
19780;SDS011;10050;55.492;13.506;2023-07-29T08:58:50;3.00;;;2.10;;
19780;SDS011;10050;55.492;13.506;2023-07-29T09:01:16;2.30;;;2.07;;
19780;SDS011;10050;55.492;13.506;2023-07-29T09:03:42;2.80;;;2.50;;
19780;SDS011;10050;55.492;13.506;2023-07-29T09:06:08;1.97;;;1.87;;
19780;SDS011;10050;55.492;13.506;2023-07-29T09:08:33;2.40;;;2.27;;
19780;SDS011;10050;55.492;13.506;2023-07-29T09:10:59;2.93;;;2.40;;
19780;SDS011;10050;55.492;13.506;2023-07-29T09:13:25;2.50;;;2.30;;
19780;SDS011;10050;55.492;13.506;2023-07-29T09:15:55;2.00;;;1.90;;
19780;SDS011;10050;55.492;13.506;2023-07-29T09:18:22;3.07;;;2.40;;
19780;SDS011;10050;55.492;13.506;2023-07-29T09:20:50;2.20;;;2.10;;
19780;SDS011;10050;55.492;13.506;2023-07-29T09:23:16;2.43;;;2.23;;
19780;SDS011;10050;55.492;13.506;2023-07-29T09:25:42;2.23;;;2.03;;
19780;SDS011;10050;55.492;13.506;2023-07-29T09:28:09;2.50;;;2.30;;
19780;SDS011;10050;55.492;13.506;2023-07-29T09:30:40;2.90;;;2.60;;
19780;SDS011;10050;55.492;13.506;2023-07-29T09:33:07;2.20;;;2.10;;
19780;SDS011;10050;55.492;13.506;2023-07-29T09:35:34;3.10;;;2.33;;
19780;SDS011;10050;55.492;13.506;2023-07-29T09:38:01;2.70;;;2.50;;
19780;SDS011;10050;55.492;13.506;2023-07-29T09:40:40;2.43;;;2.23;;
19780;SDS011;10050;55.492;13.506;2023-07-29T09:43:06;2.20;;;2.10;;
19780;SDS011;10050;55.492;13.506;2023-07-29T09:45:34;2.23;;;1.97;;
19780;SDS011;10050;55.492;13.506;2023-07-29T09:48:01;1.93;;;1.83;;
19780;SDS011;10050;55.492;13.506;2023-07-29T09:50:28;2.00;;;1.70;;
19780;SDS011;10050;55.492;13.506;2023-07-29T09:52:55;2.23;;;2.03;;
19780;SDS011;10050;55.492;13.506;2023-07-29T09:55:23;1.87;;;1.77;;
19780;SDS011;10050;55.492;13.506;2023-07-29T09:57:58;2.40;;;1.97;;
19780;SDS011;10050;55.492;13.506;2023-07-29T10:00:30;2.10;;;2.00;;
19780;SDS011;10050;55.492;13.506;2023-07-29T10:02:57;2.50;;;2.03;;
19780;SDS011;10050;55.492;13.506;2023-07-29T10:05:25;1.90;;;1.80;;
19780;SDS011;10050;55.492;13.506;2023-07-29T10:07:51;1.60;;;1.50;;
19780;SDS011;10050;55.492;13.506;2023-07-29T10:10:18;2.10;;;2.00;;
19780;SDS011;10050;55.492;13.506;2023-07-29T10:12:45;2.40;;;2.20;;
19780;SDS011;10050;55.492;13.506;2023-07-29T10:15:11;2.63;;;1.50;;
19780;SDS011;10050;55.492;13.506;2023-07-29T10:17:37;2.10;;;2.00;;
19780;SDS011;10050;55.492;13.506;2023-07-29T10:20:04;2.10;;;1.90;;
19780;SDS011;10050;55.492;13.506;2023-07-29T10:25:08;3.80;;;2.23;;
19780;SDS011;10050;55.492;13.506;2023-07-29T10:28:07;2.07;;;1.97;;
19780;SDS011;10050;55.492;13.506;2023-07-29T10:30:40;2.57;;;1.87;;
19780;SDS011;10050;55.492;13.506;2023-07-29T10:33:06;2.70;;;2.40;;
19780;SDS011;10050;55.492;13.506;2023-07-29T10:35:32;3.90;;;2.20;;
19780;SDS011;10050;55.492;13.506;2023-07-29T10:37:59;2.50;;;2.30;;
19780;SDS011;10050;55.492;13.506;2023-07-29T10:40:26;2.30;;;2.20;;
19780;SDS011;10050;55.492;13.506;2023-07-29T10:43:18;2.37;;;1.90;;
19780;SDS011;10050;55.492;13.506;2023-07-29T10:45:57;2.50;;;2.30;;
19780;SDS011;10050;55.492;13.506;2023-07-29T10:48:41;2.20;;;2.00;;
19780;SDS011;10050;55.492;13.506;2023-07-29T10:53:59;2.37;;;2.17;;
19780;SDS011;10050;55.492;13.506;2023-07-29T10:56:32;2.53;;;1.77;;
19780;SDS011;10050;55.492;13.506;2023-07-29T11:01:41;2.20;;;2.10;;
19780;SDS011;10050;55.492;13.506;2023-07-29T11:15:14;3.07;;;2.10;;
19780;SDS011;10050;55.492;13.506;2023-07-29T11:20:07;3.73;;;2.47;;
19780;SDS011;10050;55.492;13.506;2023-07-29T11:22:34;3.23;;;2.70;;
19780;SDS011;10050;55.492;13.506;2023-07-29T11:25:00;4.53;;;2.60;;
19780;SDS011;10050;55.492;13.506;2023-07-29T11:27:26;2.97;;;2.50;;
19780;SDS011;10050;55.492;13.506;2023-07-29T11:30:01;3.10;;;2.90;;
19780;SDS011;10050;55.492;13.506;2023-07-29T11:32:30;2.67;;;2.47;;
19780;SDS011;10050;55.492;13.506;2023-07-29T11:34:56;3.53;;;3.30;;
19780;SDS011;10050;55.492;13.506;2023-07-29T11:37:22;2.70;;;2.50;;
19780;SDS011;10050;55.492;13.506;2023-07-29T11:39:47;2.90;;;2.70;;
19780;SDS011;10050;55.492;13.506;2023-07-29T11:42:14;2.70;;;2.33;;
19780;SDS011;10050;55.492;13.506;2023-07-29T11:44:40;3.00;;;2.80;;
19780;SDS011;10050;55.492;13.506;2023-07-29T11:47:09;2.60;;;2.40;;
19780;SDS011;10050;55.492;13.506;2023-07-29T11:49:38;2.87;;;2.67;;
19780;SDS011;10050;55.492;13.506;2023-07-29T11:52:07;2.93;;;2.70;;
19780;SDS011;10050;55.492;13.506;2023-07-29T11:54:35;2.50;;;2.30;;
19780;SDS011;10050;55.492;13.506;2023-07-29T11:57:03;3.57;;;3.13;;
19780;SDS011;10050;55.492;13.506;2023-07-29T11:59:33;3.63;;;2.47;;
19780;SDS011;10050;55.492;13.506;2023-07-29T12:02:33;2.57;;;2.33;;
19780;SDS011;10050;55.492;13.506;2023-07-29T12:04:51;3.30;;;3.00;;
19780;SDS011;10050;55.492;13.506;2023-07-29T12:07:18;3.60;;;2.87;;
19780;SDS011;10050;55.492;13.506;2023-07-29T12:09:44;2.80;;;2.60;;
19780;SDS011;10050;55.492;13.506;2023-07-29T12:12:11;3.73;;;3.10;;
19780;SDS011;10050;55.492;13.506;2023-07-29T12:14:37;3.93;;;3.63;;
19780;SDS011;10050;55.492;13.506;2023-07-29T12:17:04;3.30;;;3.03;;
19780;SDS011;10050;55.492;13.506;2023-07-29T12:19:31;3.93;;;3.40;;
19780;SDS011;10050;55.492;13.506;2023-07-29T12:21:59;3.43;;;3.07;;
19780;SDS011;10050;55.492;13.506;2023-07-29T12:24:25;3.43;;;3.17;;
19780;SDS011;10050;55.492;13.506;2023-07-29T12:26:51;4.80;;;3.20;;
19780;SDS011;10050;55.492;13.506;2023-07-29T12:29:18;3.40;;;3.07;;
19780;SDS011;10050;55.492;13.506;2023-07-29T12:31:47;3.13;;;2.83;;
19780;SDS011;10050;55.492;13.506;2023-07-29T12:34:20;2.83;;;2.63;;
19780;SDS011;10050;55.492;13.506;2023-07-29T12:36:47;3.43;;;2.97;;
19780;SDS011;10050;55.492;13.506;2023-07-29T12:39:21;2.40;;;2.30;;
19780;SDS011;10050;55.492;13.506;2023-07-29T12:41:49;2.50;;;2.30;;
19780;SDS011;10050;55.492;13.506;2023-07-29T12:44:15;3.60;;;3.30;;
19780;SDS011;10050;55.492;13.506;2023-07-29T12:46:41;3.17;;;2.90;;
19780;SDS011;10050;55.492;13.506;2023-07-29T12:49:07;3.63;;;2.27;;
19780;SDS011;10050;55.492;13.506;2023-07-29T12:51:33;2.50;;;2.40;;
19780;SDS011;10050;55.492;13.506;2023-07-29T12:53:59;2.50;;;2.30;;
19780;SDS011;10050;55.492;13.506;2023-07-29T12:56:25;2.57;;;2.40;;
19780;SDS011;10050;55.492;13.506;2023-07-29T12:58:51;2.30;;;2.10;;
19780;SDS011;10050;55.492;13.506;2023-07-29T13:01:17;2.83;;;2.63;;
19780;SDS011;10050;55.492;13.506;2023-07-29T13:03:43;4.10;;;2.70;;
19780;SDS011;10050;55.492;13.506;2023-07-29T13:06:10;4.50;;;2.40;;
19780;SDS011;10050;55.492;13.506;2023-07-29T13:08:36;1.80;;;1.70;;
19780;SDS011;10050;55.492;13.506;2023-07-29T13:11:02;2.87;;;2.57;;
19780;SDS011;10050;55.492;13.506;2023-07-29T13:13:28;2.87;;;2.60;;
19780;SDS011;10050;55.492;13.506;2023-07-29T13:15:54;3.23;;;2.53;;
19780;SDS011;10050;55.492;13.506;2023-07-29T13:18:20;2.73;;;2.53;;
19780;SDS011;10050;55.492;13.506;2023-07-29T13:20:46;3.30;;;3.00;;
19780;SDS011;10050;55.492;13.506;2023-07-29T13:23:12;2.97;;;2.77;;
19780;SDS011;10050;55.492;13.506;2023-07-29T13:25:38;2.97;;;2.77;;
19780;SDS011;10050;55.492;13.506;2023-07-29T13:28:08;2.90;;;2.70;;
19780;SDS011;10050;55.492;13.506;2023-07-29T13:30:35;2.43;;;2.23;;
19780;SDS011;10050;55.492;13.506;2023-07-29T13:33:01;2.50;;;2.10;;
19780;SDS011;10050;55.492;13.506;2023-07-29T13:35:26;2.50;;;2.30;;
19780;SDS011;10050;55.492;13.506;2023-07-29T13:37:52;2.17;;;2.03;;
19780;SDS011;10050;55.492;13.506;2023-07-29T13:40:18;2.57;;;2.37;;
19780;SDS011;10050;55.492;13.506;2023-07-29T13:42:44;3.47;;;2.40;;
19780;SDS011;10050;55.492;13.506;2023-07-29T13:45:09;3.40;;;2.37;;
19780;SDS011;10050;55.492;13.506;2023-07-29T13:47:35;2.03;;;1.93;;
19780;SDS011;10050;55.492;13.506;2023-07-29T13:50:03;2.57;;;2.37;;
19780;SDS011;10050;55.492;13.506;2023-07-29T13:52:30;2.93;;;2.67;;
19780;SDS011;10050;55.492;13.506;2023-07-29T13:54:55;5.07;;;2.37;;
19780;SDS011;10050;55.492;13.506;2023-07-29T13:57:21;2.80;;;2.33;;
19780;SDS011;10050;55.492;13.506;2023-07-29T13:59:46;5.27;;;2.53;;
19780;SDS011;10050;55.492;13.506;2023-07-29T14:02:12;4.17;;;2.67;;
19780;SDS011;10050;55.492;13.506;2023-07-29T14:04:38;2.07;;;1.87;;
19780;SDS011;10050;55.492;13.506;2023-07-29T14:07:04;2.43;;;2.27;;
19780;SDS011;10050;55.492;13.506;2023-07-29T14:09:29;2.17;;;2.07;;
19780;SDS011;10050;55.492;13.506;2023-07-29T14:11:55;2.63;;;2.20;;
19780;SDS011;10050;55.492;13.506;2023-07-29T14:14:21;2.27;;;1.90;;
19780;SDS011;10050;55.492;13.506;2023-07-29T14:16:47;2.40;;;2.23;;
19780;SDS011;10050;55.492;13.506;2023-07-29T14:19:12;1.70;;;1.60;;
19780;SDS011;10050;55.492;13.506;2023-07-29T14:21:38;1.97;;;1.87;;
19780;SDS011;10050;55.492;13.506;2023-07-29T14:24:05;1.80;;;1.70;;
19780;SDS011;10050;55.492;13.506;2023-07-29T14:26:31;2.50;;;1.97;;
19780;SDS011;10050;55.492;13.506;2023-07-29T14:28:56;2.93;;;2.50;;
19780;SDS011;10050;55.492;13.506;2023-07-29T14:31:22;2.00;;;1.90;;
19780;SDS011;10050;55.492;13.506;2023-07-29T14:33:48;2.10;;;2.00;;
19780;SDS011;10050;55.492;13.506;2023-07-29T14:36:16;2.53;;;2.33;;
19780;SDS011;10050;55.492;13.506;2023-07-29T14:38:42;2.10;;;1.90;;
19780;SDS011;10050;55.492;13.506;2023-07-29T14:41:07;2.40;;;2.20;;
19780;SDS011;10050;55.492;13.506;2023-07-29T14:43:36;5.23;;;3.20;;
19780;SDS011;10050;55.492;13.506;2023-07-29T14:46:02;3.10;;;2.70;;
19780;SDS011;10050;55.492;13.506;2023-07-29T14:48:28;2.80;;;2.60;;
19780;SDS011;10050;55.492;13.506;2023-07-29T14:50:54;3.27;;;3.07;;
19780;SDS011;10050;55.492;13.506;2023-07-29T14:53:20;3.80;;;3.30;;
19780;SDS011;10050;55.492;13.506;2023-07-29T14:55:46;3.40;;;3.10;;
19780;SDS011;10050;55.492;13.506;2023-07-29T14:58:11;4.37;;;3.33;;
19780;SDS011;10050;55.492;13.506;2023-07-29T15:00:37;3.53;;;3.23;;
19780;SDS011;10050;55.492;13.506;2023-07-29T15:03:02;4.57;;;3.23;;
19780;SDS011;10050;55.492;13.506;2023-07-29T15:05:28;3.60;;;3.30;;